createdAt,value
2018-08-28T00:02:04.518Z,97.00
2018-08-28T00:04:33.259Z,97.00
2018-08-28T00:07:48.828Z,97.20
2018-08-28T00:10:17.672Z,97.10
2018-08-28T00:12:46.567Z,97.40
2018-08-28T00:15:15.267Z,97.40
2018-08-28T00:17:43.919Z,97.30
2018-08-28T00:20:12.767Z,97.40
2018-08-28T00:22:41.474Z,97.60
2018-08-28T00:25:10.298Z,97.70
2018-08-28T00:27:39.487Z,97.50
2018-08-28T00:30:08.252Z,97.90
2018-08-28T00:32:37.077Z,97.60
2018-08-28T00:35:05.839Z,97.50
2018-08-28T00:37:34.743Z,97.60
2018-08-28T00:40:03.479Z,97.60
2018-08-28T00:42:32.335Z,97.50
2018-08-28T00:45:01.194Z,97.70
2018-08-28T00:47:30.007Z,97.80
2018-08-28T00:49:58.799Z,97.70
2018-08-28T00:52:27.820Z,97.70
2018-08-28T00:54:56.627Z,97.60
2018-08-28T00:57:25.239Z,97.70
2018-08-28T00:59:54.055Z,97.80
2018-08-28T01:02:22.667Z,97.70
2018-08-28T01:04:51.524Z,97.70
2018-08-28T01:07:20.305Z,97.60
2018-08-28T01:09:49.193Z,97.60
2018-08-28T01:12:18.104Z,97.70
2018-08-28T01:14:46.811Z,97.80
2018-08-28T01:17:15.551Z,97.90
2018-08-28T01:19:44.432Z,97.70
2018-08-28T01:22:13.471Z,97.90
2018-08-28T01:24:42.198Z,97.80
2018-08-28T01:27:11.117Z,97.90
2018-08-28T01:29:39.959Z,97.80
2018-08-28T01:32:08.791Z,97.80
2018-08-28T01:34:37.475Z,97.90
2018-08-28T01:37:06.608Z,97.90
2018-08-28T01:39:35.377Z,97.80
2018-08-28T01:42:04.264Z,97.80
2018-08-28T01:44:33.166Z,97.60
2018-08-28T01:47:02.139Z,97.70
2018-08-28T01:49:30.823Z,97.60
2018-08-28T01:51:59.822Z,97.50
2018-08-28T01:54:28.616Z,97.50
2018-08-28T01:56:57.295Z,97.90
2018-08-28T01:59:26.279Z,97.80
2018-08-28T02:01:55.006Z,97.90
2018-08-28T02:04:23.843Z,98.10
2018-08-28T02:06:52.710Z,98.20
2018-08-28T02:09:21.531Z,98.20
2018-08-28T02:11:50.283Z,98.20
2018-08-28T02:14:19.107Z,98.00
2018-08-28T02:16:47.883Z,98.00
2018-08-28T02:19:16.888Z,98.10
2018-08-28T02:21:45.884Z,98.50
2018-08-28T02:24:14.539Z,98.30
2018-08-28T02:26:43.384Z,98.30
2018-08-28T02:29:12.346Z,98.30
2018-08-28T02:31:41.047Z,98.70
2018-08-28T02:34:09.923Z,98.30
2018-08-28T02:36:38.724Z,98.40
2018-08-28T02:39:09.846Z,98.30
2018-08-28T02:41:39.364Z,98.30
2018-08-28T02:44:08.241Z,98.30
2018-08-28T02:46:37.351Z,98.30
2018-08-28T02:49:06.470Z,98.60
2018-08-28T02:51:36.023Z,98.50
2018-08-28T02:54:04.777Z,98.60
2018-08-28T02:56:33.556Z,98.40
2018-08-28T02:59:02.259Z,98.50
2018-08-28T03:01:31.194Z,98.40
2018-08-28T03:04:00.012Z,98.60
2018-08-28T03:06:28.716Z,98.80
2018-08-28T03:08:57.568Z,98.60
2018-08-28T03:11:26.230Z,98.60
2018-08-28T03:13:55.133Z,98.70
2018-08-28T03:16:23.934Z,98.40
2018-08-28T03:18:53.210Z,98.60
2018-08-28T03:21:21.980Z,98.50
2018-08-28T03:23:50.692Z,98.40
2018-08-28T03:26:19.486Z,98.40
2018-08-28T03:28:48.420Z,98.40
2018-08-28T03:31:17.055Z,98.40
2018-08-28T03:33:46.027Z,98.50
2018-08-28T03:36:14.727Z,98.40
2018-08-28T03:38:43.648Z,98.40
2018-08-28T03:41:12.477Z,98.40
2018-08-28T03:43:41.187Z,98.80
2018-08-28T03:46:09.958Z,98.40
2018-08-28T03:48:38.878Z,98.40
2018-08-28T03:51:08.281Z,98.30
2018-08-28T03:53:37.159Z,98.30
2018-08-28T03:56:06.263Z,98.20
2018-08-28T03:58:34.996Z,98.30
2018-08-28T04:01:03.950Z,98.50
2018-08-28T04:03:32.772Z,98.20
2018-08-28T04:06:01.643Z,98.20
2018-08-28T04:08:30.458Z,98.20
2018-08-28T04:10:59.411Z,98.30
2018-08-28T04:13:28.212Z,98.20
2018-08-28T04:15:57.181Z,98.20
2018-08-28T04:18:26.088Z,98.20
2018-08-28T04:20:54.724Z,98.20
2018-08-28T04:23:23.782Z,98.30
2018-08-28T04:25:52.410Z,98.10
2018-08-28T04:28:21.231Z,98.20
2018-08-28T04:30:49.949Z,98.20
2018-08-28T04:33:18.809Z,98.20
2018-08-28T04:35:47.573Z,98.10
2018-08-28T04:38:16.680Z,98.00
2018-08-28T04:40:45.663Z,98.20
2018-08-28T04:43:14.399Z,98.20
2018-08-28T04:45:43.269Z,98.50
2018-08-28T04:48:11.964Z,98.10
2018-08-28T04:50:40.752Z,98.20
2018-08-28T04:53:09.363Z,98.50
2018-08-28T04:55:46.830Z,98.70
2018-08-28T04:58:15.604Z,99.30
2018-08-28T05:00:44.474Z,98.70
2018-08-28T05:03:13.366Z,98.40
2018-08-28T05:05:42.190Z,98.20
2018-08-28T05:08:10.814Z,98.30
2018-08-28T05:10:39.478Z,98.40
2018-08-28T05:13:08.123Z,98.30
2018-08-28T05:15:36.996Z,98.20
2018-08-28T05:18:05.707Z,98.00
2018-08-28T05:20:34.660Z,98.10
2018-08-28T05:23:03.294Z,97.90
2018-08-28T05:25:32.089Z,97.70
2018-08-28T05:28:00.699Z,97.90
2018-08-28T05:30:29.713Z,98.10
2018-08-28T05:32:58.717Z,98.30
2018-08-28T05:35:27.440Z,98.20
2018-08-28T05:37:56.352Z,97.90
2018-08-28T05:40:25.023Z,98.40
2018-08-28T05:42:53.769Z,98.40
2018-08-28T05:45:22.358Z,98.50
2018-08-28T05:47:51.249Z,98.20
2018-08-28T05:50:19.960Z,98.10
2018-08-28T05:52:48.741Z,97.90
2018-08-28T05:55:17.538Z,97.90
2018-08-28T05:57:46.404Z,98.10
2018-08-28T06:00:15.187Z,97.80
2018-08-28T06:02:43.887Z,97.60
2018-08-28T06:05:12.752Z,97.90
2018-08-28T06:07:41.736Z,97.70
2018-08-28T06:10:10.559Z,97.70
2018-08-28T06:12:39.274Z,97.80
2018-08-28T06:15:08.216Z,97.60
2018-08-28T06:17:37.061Z,97.30
2018-08-28T06:20:06.301Z,97.10
2018-08-28T06:22:35.188Z,96.40
2018-08-28T06:25:04.017Z,95.40
2018-08-28T06:27:32.829Z,94.60
2018-08-28T06:30:01.861Z,94.20
2018-08-28T06:32:30.483Z,93.80
2018-08-28T06:34:59.122Z,93.00
2018-08-28T06:37:27.844Z,92.90
2018-08-28T06:39:56.616Z,92.50
2018-08-28T06:42:25.611Z,92.80
2018-08-28T06:44:54.299Z,92.50
2018-08-28T06:47:23.269Z,93.40
2018-08-28T06:49:51.951Z,93.00
2018-08-28T06:52:20.639Z,92.40
2018-08-28T06:54:49.530Z,92.30
2018-08-28T06:57:18.140Z,92.10
2018-08-28T06:59:47.105Z,92.20
2018-08-28T07:02:15.985Z,92.80
2018-08-28T07:04:44.885Z,92.80
2018-08-28T07:07:13.657Z,92.70
2018-08-28T07:09:42.663Z,92.50
2018-08-28T07:12:11.358Z,92.80
2018-08-28T07:14:40.141Z,92.40
2018-08-28T07:17:08.959Z,92.20
2018-08-28T07:19:37.554Z,92.10
2018-08-28T07:22:06.714Z,92.60
2018-08-28T07:24:35.366Z,92.20
2018-08-28T07:27:04.288Z,92.20
2018-08-28T07:29:32.954Z,92.10
2018-08-28T07:32:01.857Z,92.10
2018-08-28T07:34:30.755Z,92.30
2018-08-28T07:36:59.425Z,92.10
2018-08-28T07:39:28.133Z,92.40
2018-08-28T07:41:56.853Z,92.20
2018-08-28T07:44:25.698Z,92.00
2018-08-28T07:46:54.489Z,91.70
2018-08-28T07:49:23.475Z,92.00
2018-08-28T07:51:52.228Z,91.70
2018-08-28T07:54:21.182Z,92.00
2018-08-28T07:56:49.971Z,91.40
2018-08-28T07:59:18.828Z,91.30
2018-08-28T08:01:47.619Z,91.70
2018-08-28T08:04:16.459Z,91.70
2018-08-28T08:06:45.303Z,91.90
2018-08-28T08:09:14.136Z,91.80
2018-08-28T08:11:42.973Z,91.90
2018-08-28T08:14:11.782Z,91.50
2018-08-28T08:16:40.671Z,91.90
2018-08-28T08:19:09.503Z,91.80
2018-08-28T08:21:38.323Z,91.80
2018-08-28T08:24:07.139Z,92.10
2018-08-28T08:26:36.010Z,92.10
2018-08-28T08:29:04.899Z,91.90
2018-08-28T08:31:33.626Z,91.80
2018-08-28T08:34:02.471Z,91.80
2018-08-28T08:36:31.361Z,91.70
2018-08-28T08:39:03.121Z,91.70
2018-08-28T08:41:32.034Z,92.10
2018-08-28T08:44:00.903Z,91.80
2018-08-28T08:46:29.606Z,91.90
2018-08-28T08:48:58.490Z,92.70
2018-08-28T08:51:27.279Z,91.70
2018-08-28T08:53:56.158Z,91.60
2018-08-28T08:56:24.943Z,91.50
2018-08-28T08:58:53.628Z,91.50
2018-08-28T09:01:22.709Z,91.50
2018-08-28T09:03:51.440Z,91.50
2018-08-28T09:06:20.300Z,91.30
2018-08-28T09:08:49.084Z,91.10
2018-08-28T09:11:17.976Z,91.40
2018-08-28T09:13:46.813Z,92.20
2018-08-28T09:16:15.619Z,92.00
2018-08-28T09:18:44.433Z,91.50
2018-08-28T09:21:13.133Z,91.20
2018-08-28T09:23:42.011Z,91.70
2018-08-28T09:26:10.809Z,91.30
2018-08-28T09:28:39.620Z,91.50
2018-08-28T09:31:08.360Z,91.50
2018-08-28T09:33:37.278Z,91.30
2018-08-28T09:36:05.975Z,91.40
2018-08-28T09:38:34.803Z,91.30
2018-08-28T09:41:03.777Z,91.10
2018-08-28T09:43:32.398Z,91.10
2018-08-28T09:46:01.310Z,91.30
2018-08-28T09:48:30.146Z,91.10
2018-08-28T09:50:59.074Z,91.10
2018-08-28T09:53:27.980Z,91.20
2018-08-28T09:55:56.832Z,91.20
2018-08-28T09:58:25.664Z,91.20
2018-08-28T10:01:00.014Z,91.20
2018-08-28T10:03:28.658Z,90.80
2018-08-28T10:05:57.671Z,91.10
2018-08-28T10:08:26.396Z,90.60
2018-08-28T10:10:55.179Z,91.00
2018-08-28T10:13:23.855Z,90.90
2018-08-28T10:15:52.956Z,91.30
2018-08-28T10:18:21.548Z,91.10
2018-08-28T10:20:50.481Z,91.00
2018-08-28T10:23:19.206Z,91.00
2018-08-28T10:25:48.161Z,91.20
2018-08-28T10:28:17.016Z,91.00
2018-08-28T10:30:45.743Z,90.70
2018-08-28T10:33:14.566Z,90.90
2018-08-28T10:35:43.294Z,90.70
2018-08-28T10:38:12.298Z,91.10
2018-08-28T10:40:41.034Z,91.80
2018-08-28T10:43:09.879Z,91.50
2018-08-28T10:45:38.655Z,91.90
2018-08-28T10:48:07.660Z,92.30
2018-08-28T10:50:36.531Z,92.20
2018-08-28T10:53:05.440Z,91.40
2018-08-28T10:55:34.252Z,90.80
2018-08-28T10:58:02.932Z,90.90
2018-08-28T11:00:31.904Z,90.40
2018-08-28T11:03:00.647Z,90.10
2018-08-28T11:05:29.796Z,90.20
2018-08-28T11:07:58.575Z,91.30
2018-08-28T11:10:27.462Z,90.70
2018-08-28T11:12:56.150Z,91.40
2018-08-28T11:15:25.241Z,91.00
2018-08-28T11:17:53.961Z,91.30
2018-08-28T11:20:22.778Z,91.10
2018-08-28T11:22:51.709Z,90.90
2018-08-28T11:25:20.495Z,90.40
2018-08-28T11:27:49.342Z,90.90
2018-08-28T11:30:18.324Z,90.20
2018-08-28T11:32:47.300Z,90.40
2018-08-28T11:35:16.155Z,91.80
2018-08-28T11:37:44.950Z,92.10
2018-08-28T11:40:13.738Z,91.90
2018-08-28T11:42:42.543Z,91.60
2018-08-28T11:45:11.325Z,91.10
2018-08-28T11:47:40.205Z,90.90
2018-08-28T11:50:09.718Z,90.50
2018-08-28T11:52:38.745Z,90.20
2018-08-28T11:55:07.800Z,90.10
2018-08-28T11:57:43.136Z,90.80
2018-08-28T12:00:12.005Z,90.50
2018-08-28T12:02:40.869Z,90.50
2018-08-28T12:05:09.747Z,90.20
2018-08-28T12:07:38.622Z,91.00
2018-08-28T12:10:08.579Z,91.00
2018-08-28T12:12:37.635Z,90.80
2018-08-28T12:15:06.644Z,90.80
2018-08-28T12:17:35.624Z,90.60
2018-08-28T12:20:04.789Z,90.30
2018-08-28T12:22:33.599Z,90.50
2018-08-28T12:25:02.460Z,90.80
2018-08-28T12:27:31.317Z,90.80
2018-08-28T12:30:00.350Z,90.70
2018-08-28T12:32:29.227Z,90.20
2018-08-28T12:34:58.051Z,90.60
2018-08-28T12:37:27.014Z,90.70
2018-08-28T12:39:55.831Z,91.10
2018-08-28T12:42:24.598Z,90.30
2018-08-28T12:44:53.168Z,90.00
2018-08-28T12:47:21.999Z,90.90
2018-08-28T12:49:50.843Z,91.20
2018-08-28T12:52:19.460Z,91.70
2018-08-28T12:54:48.444Z,91.60
2018-08-28T12:57:17.356Z,91.70
2018-08-28T12:59:46.007Z,92.30
2018-08-28T13:02:14.999Z,92.00
2018-08-28T13:04:43.794Z,92.10
2018-08-28T13:07:12.608Z,91.80
2018-08-28T13:09:41.335Z,91.50
2018-08-28T13:12:10.140Z,91.70
2018-08-28T13:14:39.137Z,92.00
2018-08-28T13:17:07.929Z,91.90
2018-08-28T13:19:36.750Z,91.90
2018-08-28T13:22:05.709Z,91.90
2018-08-28T13:24:34.598Z,92.10
2018-08-28T13:27:03.717Z,91.70
2018-08-28T13:29:32.932Z,92.00
2018-08-28T13:32:02.130Z,92.70
2018-08-28T13:34:30.931Z,93.10
2018-08-28T13:36:59.611Z,92.90
2018-08-28T13:39:28.451Z,92.80
2018-08-28T13:41:57.227Z,93.20
2018-08-28T13:44:26.342Z,92.90
2018-08-28T13:46:55.146Z,92.90
2018-08-28T13:49:23.807Z,93.60
2018-08-28T13:51:52.770Z,93.10
2018-08-28T13:54:21.530Z,93.00
2018-08-28T13:56:50.499Z,92.70
2018-08-28T13:59:19.219Z,92.50
2018-08-28T14:01:48.069Z,92.70
2018-08-28T14:04:16.734Z,92.90
2018-08-28T14:06:45.527Z,93.00
2018-08-28T14:09:14.420Z,92.80
2018-08-28T14:11:43.516Z,92.80
2018-08-28T14:14:12.216Z,92.90
2018-08-28T14:16:41.081Z,93.00
2018-08-28T14:19:09.990Z,92.80
2018-08-28T14:21:38.674Z,92.00
2018-08-28T14:24:07.511Z,92.70
2018-08-28T14:26:36.471Z,93.70
2018-08-28T14:29:05.541Z,93.10
2018-08-28T14:31:34.218Z,93.60
2018-08-28T14:34:03.210Z,93.50
2018-08-28T14:36:32.422Z,93.90
2018-08-28T14:39:01.228Z,94.10
2018-08-28T14:41:29.934Z,93.10
2018-08-28T14:43:58.825Z,93.60
2018-08-28T14:46:27.590Z,93.20
2018-08-28T14:48:56.422Z,92.40
2018-08-28T14:51:25.280Z,93.60
2018-08-28T14:53:53.930Z,92.90
2018-08-28T14:56:22.646Z,93.70
2018-08-28T14:58:51.697Z,94.00
2018-08-28T15:01:21.004Z,94.40
2018-08-28T15:03:49.875Z,94.10
2018-08-28T15:06:18.742Z,94.60
2018-08-28T15:08:47.630Z,94.40
2018-08-28T15:11:16.681Z,94.70
2018-08-28T15:13:45.875Z,94.90
2018-08-28T15:16:14.856Z,94.80
2018-08-28T15:18:43.911Z,95.20
2018-08-28T15:21:12.752Z,94.50
2018-08-28T15:23:41.732Z,94.70
2018-08-28T15:26:10.554Z,95.50
2018-08-28T15:28:39.857Z,95.10
2018-08-28T15:31:08.945Z,95.50
2018-08-28T15:33:38.090Z,95.50
2018-08-28T15:36:06.962Z,95.70
2018-08-28T15:38:35.898Z,95.90
2018-08-28T15:41:04.928Z,95.80
2018-08-28T15:43:33.802Z,95.70
2018-08-28T15:46:02.893Z,96.10
2018-08-28T15:48:31.685Z,96.30
2018-08-28T15:51:00.697Z,96.50
2018-08-28T15:53:29.575Z,96.90
2018-08-28T15:55:58.463Z,97.10
2018-08-28T15:58:27.630Z,97.10
2018-08-28T16:00:56.701Z,97.20
2018-08-28T16:03:25.795Z,96.90
2018-08-28T16:05:54.913Z,97.10
2018-08-28T16:08:24.087Z,97.40
2018-08-28T16:10:53.069Z,97.10
2018-08-28T16:13:22.022Z,97.40
2018-08-28T16:15:51.022Z,97.50
2018-08-28T16:18:20.092Z,97.40
2018-08-28T16:20:48.921Z,96.90
2018-08-28T16:23:23.291Z,96.80
2018-08-28T16:25:52.439Z,96.70
2018-08-28T16:28:21.451Z,96.70
2018-08-28T16:30:50.327Z,96.90
2018-08-28T16:33:19.418Z,97.00
2018-08-28T16:35:48.461Z,97.10
2018-08-28T16:38:17.205Z,97.10
2018-08-28T16:40:46.509Z,96.80
2018-08-28T16:43:15.676Z,97.10
2018-08-28T16:45:44.677Z,97.50
2018-08-28T16:48:13.803Z,98.10
2018-08-28T16:50:42.904Z,98.10
2018-08-28T16:53:12.244Z,98.10
2018-08-28T16:55:41.654Z,98.10
2018-08-28T16:58:10.518Z,98.20
2018-08-28T17:00:39.306Z,98.20
2018-08-28T17:03:08.301Z,97.90
2018-08-28T17:05:43.744Z,97.50
2018-08-28T17:08:12.486Z,97.10
2018-08-28T17:10:41.519Z,96.90
2018-08-28T17:13:10.516Z,96.80
2018-08-28T17:15:39.301Z,96.90
2018-08-28T17:18:08.146Z,96.80
2018-08-28T17:20:36.945Z,96.90
2018-08-28T17:23:05.873Z,96.80
2018-08-28T17:25:34.660Z,97.10
2018-08-28T17:28:03.697Z,97.20
2018-08-28T17:30:32.387Z,97.40
2018-08-28T17:33:01.114Z,97.30
2018-08-28T17:35:30.123Z,97.20
2018-08-28T17:37:58.886Z,97.10
2018-08-28T17:40:27.790Z,97.40
2018-08-28T17:42:56.508Z,97.50
2018-08-28T17:45:25.272Z,97.50
2018-08-28T17:47:54.160Z,97.50
2018-08-28T17:50:22.844Z,97.30
2018-08-28T17:52:51.835Z,97.30
2018-08-28T17:55:20.835Z,97.40
2018-08-28T17:57:49.565Z,97.50
2018-08-28T18:00:18.200Z,97.50
2018-08-28T18:02:47.095Z,97.70
2018-08-28T18:05:15.922Z,98.10
2018-08-28T18:07:44.665Z,97.60
2018-08-28T18:10:13.558Z,97.90
2018-08-28T18:12:42.510Z,97.90
2018-08-28T18:15:11.545Z,98.30
2018-08-28T18:17:40.338Z,97.80
2018-08-28T18:20:09.035Z,97.90
2018-08-28T18:22:38.187Z,97.70
2018-08-28T18:25:07.250Z,97.80
2018-08-28T18:27:36.088Z,97.90
2018-08-28T18:30:05.047Z,98.20
2018-08-28T18:32:33.956Z,98.20
2018-08-28T18:35:02.745Z,98.20
2018-08-28T18:37:31.753Z,98.40
2018-08-28T18:40:00.547Z,98.30
2018-08-28T18:42:29.355Z,98.50
2018-08-28T18:44:58.135Z,98.30
2018-08-28T18:47:26.814Z,98.20
2018-08-28T18:49:55.605Z,98.20
2018-08-28T18:52:24.245Z,98.10
2018-08-28T18:54:53.076Z,98.10
2018-08-28T18:57:21.720Z,98.10
2018-08-28T18:59:50.658Z,98.00
2018-08-28T19:02:19.380Z,97.90
2018-08-28T19:04:48.320Z,98.00
2018-08-28T19:07:17.219Z,98.20
2018-08-28T19:09:46.107Z,98.20
2018-08-28T19:12:14.994Z,98.10
2018-08-28T19:14:44.034Z,98.20
2018-08-28T19:17:12.772Z,98.20
2018-08-28T19:19:41.765Z,98.30
2018-08-28T19:22:10.664Z,98.60
2018-08-28T19:24:39.184Z,98.30
2018-08-28T19:27:08.638Z,98.50
2018-08-28T19:29:37.465Z,98.30
2018-08-28T19:32:06.332Z,98.20
2018-08-28T19:34:35.466Z,98.20
2018-08-28T19:37:04.204Z,98.00
2018-08-28T19:39:34.113Z,98.20
2018-08-28T19:42:02.917Z,98.10
2018-08-28T19:44:31.690Z,98.10
2018-08-28T19:47:00.577Z,98.30
2018-08-28T19:49:29.954Z,98.20
2018-08-28T19:51:58.788Z,98.30
2018-08-28T19:54:27.666Z,98.40
2018-08-28T19:56:56.660Z,98.40
2018-08-28T19:59:25.336Z,98.40
2018-08-28T20:01:54.167Z,98.40
2018-08-28T20:04:22.886Z,98.60
2018-08-28T20:06:51.695Z,98.60
2018-08-28T20:09:20.732Z,98.60
2018-08-28T20:11:49.510Z,98.70
2018-08-28T20:14:18.372Z,98.60
2018-08-28T20:16:47.466Z,98.70
2018-08-28T20:19:16.211Z,98.80
2018-08-28T20:21:44.812Z,98.80
2018-08-28T20:24:13.600Z,99.20
2018-08-28T20:26:42.452Z,99.30
2018-08-28T20:29:11.302Z,99.30
2018-08-28T20:31:40.116Z,99.50
2018-08-28T20:34:08.895Z,99.80
2018-08-28T20:36:37.609Z,99.40
2018-08-28T20:39:07.227Z,99.30
2018-08-28T20:41:36.450Z,99.00
2018-08-28T20:44:05.386Z,98.70
2018-08-28T20:46:34.198Z,98.60
2018-08-28T20:49:03.138Z,98.40
2018-08-28T20:51:31.925Z,98.30
2018-08-28T20:54:00.777Z,97.90
2018-08-28T20:56:29.575Z,97.70
2018-08-28T20:58:58.498Z,97.40
2018-08-28T21:01:27.386Z,97.30
2018-08-28T21:03:56.221Z,97.20
2018-08-28T21:06:24.923Z,97.00
2018-08-28T21:08:53.877Z,97.00
2018-08-28T21:11:22.646Z,97.10
2018-08-28T21:13:51.579Z,97.00
2018-08-28T21:16:20.440Z,96.70
2018-08-28T21:18:49.419Z,96.80
2018-08-28T21:21:18.203Z,96.60
2018-08-28T21:23:47.079Z,96.70
2018-08-28T21:26:15.885Z,96.60
2018-08-28T21:28:44.627Z,96.60
2018-08-28T21:31:13.771Z,96.50
2018-08-28T21:33:42.774Z,96.40
2018-08-28T21:36:11.715Z,96.50
2018-08-28T21:38:41.570Z,96.60
2018-08-28T21:41:10.299Z,96.40
2018-08-28T21:43:39.270Z,96.40
2018-08-28T21:46:08.058Z,96.40
2018-08-28T21:48:37.019Z,96.40
2018-08-28T21:51:05.931Z,96.70
2018-08-28T21:53:34.789Z,96.40
2018-08-28T21:56:03.533Z,96.70
2018-08-28T21:58:32.191Z,96.90
2018-08-28T22:01:06.199Z,96.80
2018-08-28T22:03:35.170Z,96.90
2018-08-28T22:06:03.885Z,97.10
2018-08-28T22:08:32.896Z,97.00
2018-08-28T22:11:01.841Z,97.20
2018-08-28T22:13:30.681Z,97.30
2018-08-28T22:15:59.476Z,97.30
2018-08-28T22:18:28.153Z,97.30
2018-08-28T22:20:57.003Z,97.50
2018-08-28T22:23:26.085Z,97.70
2018-08-28T22:25:55.180Z,98.00
2018-08-28T22:28:24.086Z,98.00
2018-08-28T22:30:53.095Z,98.10
2018-08-28T22:33:21.683Z,98.30
2018-08-28T22:35:50.635Z,98.30
2018-08-28T22:38:19.535Z,98.50
2018-08-28T22:40:48.244Z,98.60
2018-08-28T22:43:22.908Z,98.60
2018-08-28T22:45:52.223Z,98.80
2018-08-28T22:48:21.027Z,98.90
2018-08-28T22:50:49.951Z,99.10
2018-08-28T22:53:18.639Z,99.30
2018-08-28T22:55:47.505Z,99.50
2018-08-28T22:58:16.247Z,99.70
2018-08-28T23:00:45.172Z,99.30
2018-08-28T23:03:14.058Z,99.40
2018-08-28T23:05:42.755Z,99.60
2018-08-28T23:08:11.536Z,99.70
2018-08-28T23:10:40.176Z,99.90
2018-08-28T23:13:09.116Z,99.90
2018-08-28T23:15:37.826Z,99.90
2018-08-28T23:18:06.449Z,99.90
2018-08-28T23:20:35.482Z,99.90
2018-08-28T23:23:04.467Z,99.90
2018-08-28T23:25:33.304Z,99.90
2018-08-28T23:28:02.183Z,99.90
2018-08-28T23:30:31.182Z,99.90
2018-08-28T23:33:00.182Z,99.90
2018-08-28T23:35:29.435Z,99.90
2018-08-28T23:37:58.371Z,99.90
2018-08-28T23:40:27.162Z,99.90
2018-08-28T23:42:55.980Z,99.90
2018-08-28T23:45:24.900Z,99.90
2018-08-28T23:47:54.344Z,99.90
2018-08-28T23:50:23.146Z,99.90
2018-08-28T23:52:51.799Z,99.90
2018-08-28T23:55:20.488Z,99.90
2018-08-28T23:57:55.914Z,99.90
